sensor_id;sensor_type;location;lat;lon;timestamp;pressure;altitude;pressure_sealevel;temperature;humidity
24422;BME280;12600;53.326;-6.298;2022-09-20T00:00:09;102136.84;;;18.19;60.01
24422;BME280;12600;53.326;-6.298;2022-09-20T00:02:40;102142.09;;;18.29;60.17
24422;BME280;12600;53.326;-6.298;2022-09-20T00:05:09;102141.28;;;18.29;60.20
24422;BME280;12600;53.326;-6.298;2022-09-20T00:07:38;102096.16;;;17.94;60.28
24422;BME280;12600;53.326;-6.298;2022-09-20T00:10:08;102139.81;;;18.23;60.29
24422;BME280;12600;53.326;-6.298;2022-09-20T00:12:40;102130.03;;;18.16;60.35
24422;BME280;12600;53.326;-6.298;2022-09-20T00:15:09;102143.72;;;18.22;60.47
24422;BME280;12600;53.326;-6.298;2022-09-20T00:17:39;102150.53;;;18.24;60.67
24422;BME280;12600;53.326;-6.298;2022-09-20T00:20:08;102136.84;;;18.19;60.63
24422;BME280;12600;53.326;-6.298;2022-09-20T00:22:38;102155.06;;;18.20;61.03
24422;BME280;12600;53.326;-6.298;2022-09-20T00:25:08;102145.47;;;18.17;60.81
24422;BME280;12600;53.326;-6.298;2022-09-20T00:27:39;102156.72;;;18.21;61.04
24422;BME280;12600;53.326;-6.298;2022-09-20T00:30:09;102149.41;;;18.16;61.15
24422;BME280;12600;53.326;-6.298;2022-09-20T00:32:39;102158.19;;;18.18;61.06
24422;BME280;12600;53.326;-6.298;2022-09-20T00:35:08;102157.53;;;18.22;60.87
24422;BME280;12600;53.326;-6.298;2022-09-20T00:37:40;102145.81;;;18.16;60.99
24422;BME280;12600;53.326;-6.298;2022-09-20T00:40:16;102146.31;;;18.18;61.01
24422;BME280;12600;53.326;-6.298;2022-09-20T00:42:49;102145.00;;;18.24;60.99
24422;BME280;12600;53.326;-6.298;2022-09-20T00:45:22;102150.22;;;18.26;61.18
24422;BME280;12600;53.326;-6.298;2022-09-20T00:47:52;102159.81;;;18.28;61.43
24422;BME280;12600;53.326;-6.298;2022-09-20T00:50:30;102149.53;;;18.20;61.14
24422;BME280;12600;53.326;-6.298;2022-09-20T00:53:06;102151.69;;;18.23;61.26
24422;BME280;12600;53.326;-6.298;2022-09-20T00:55:41;102152.81;;;18.22;61.09
24422;BME280;12600;53.326;-6.298;2022-09-20T00:58:14;102139.13;;;18.08;61.19
24422;BME280;12600;53.326;-6.298;2022-09-20T01:00:45;102144.00;;;18.11;60.97
24422;BME280;12600;53.326;-6.298;2022-09-20T01:03:17;102154.25;;;18.20;61.03
24422;BME280;12600;53.326;-6.298;2022-09-20T01:05:50;102152.97;;;18.17;61.11
24422;BME280;12600;53.326;-6.298;2022-09-20T01:08:21;102160.31;;;18.22;61.03
24422;BME280;12600;53.326;-6.298;2022-09-20T01:10:55;102165.84;;;18.22;60.85
24422;BME280;12600;53.326;-6.298;2022-09-20T01:13:26;102153.47;;;18.19;60.79
24422;BME280;12600;53.326;-6.298;2022-09-20T01:15:56;102123.69;;;17.99;60.61
24422;BME280;12600;53.326;-6.298;2022-09-20T01:18:29;102157.03;;;18.20;60.81
24422;BME280;12600;53.326;-6.298;2022-09-20T01:21:00;102138.66;;;18.06;60.51
24422;BME280;12600;53.326;-6.298;2022-09-20T01:23:45;102167.81;;;18.21;60.67
24422;BME280;12600;53.326;-6.298;2022-09-20T01:26:47;102165.00;;;18.12;60.55
24422;BME280;12600;53.326;-6.298;2022-09-20T01:29:44;102169.09;;;18.15;60.64
24422;BME280;12600;53.326;-6.298;2022-09-20T01:32:23;102169.25;;;18.18;60.65
24422;BME280;12600;53.326;-6.298;2022-09-20T01:35:00;102172.34;;;18.17;60.71
24422;BME280;12600;53.326;-6.298;2022-09-20T01:37:41;102157.84;;;18.11;60.60
24422;BME280;12600;53.326;-6.298;2022-09-20T01:40:20;102148.91;;;18.06;60.79
24422;BME280;12600;53.326;-6.298;2022-09-20T01:43:03;102157.22;;;18.14;60.48
24422;BME280;12600;53.326;-6.298;2022-09-20T01:45:41;102162.22;;;18.12;60.42
24422;BME280;12600;53.326;-6.298;2022-09-20T01:48:21;102165.00;;;18.12;60.15
24422;BME280;12600;53.326;-6.298;2022-09-20T01:51:29;102168.28;;;18.14;60.13
24422;BME280;12600;53.326;-6.298;2022-09-20T01:57:52;102165.00;;;18.12;60.21
24422;BME280;12600;53.326;-6.298;2022-09-20T02:00:44;102163.69;;;18.10;60.24
24422;BME280;12600;53.326;-6.298;2022-09-20T02:04:14;102164.69;;;18.14;59.89
24422;BME280;12600;53.326;-6.298;2022-09-20T02:07:07;102176.56;;;18.14;59.96
24422;BME280;12600;53.326;-6.298;2022-09-20T02:10:12;102164.84;;;18.09;60.14
24422;BME280;12600;53.326;-6.298;2022-09-20T02:12:53;102168.41;;;18.09;60.13
24422;BME280;12600;53.326;-6.298;2022-09-20T02:15:45;102166.78;;;18.08;60.07
24422;BME280;12600;53.326;-6.298;2022-09-20T02:18:39;102148.72;;;17.94;60.28
24422;BME280;12600;53.326;-6.298;2022-09-20T02:21:21;102137.78;;;17.88;60.17
24422;BME280;12600;53.326;-6.298;2022-09-20T02:24:05;102164.97;;;18.04;60.11
24422;BME280;12600;53.326;-6.298;2022-09-20T02:26:43;102174.09;;;18.04;60.09
24422;BME280;12600;53.326;-6.298;2022-09-20T02:29:28;102159.28;;;17.92;59.77
24422;BME280;12600;53.326;-6.298;2022-09-20T02:32:20;102158.63;;;17.95;59.59
24422;BME280;12600;53.326;-6.298;2022-09-20T02:35:23;102150.50;;;17.89;59.57
24422;BME280;12600;53.326;-6.298;2022-09-20T02:38:19;102154.56;;;17.92;59.57
24422;BME280;12600;53.326;-6.298;2022-09-20T02:44:52;102157.31;;;17.92;59.70
24422;BME280;12600;53.326;-6.298;2022-09-20T02:47:33;102164.16;;;17.95;59.57
24422;BME280;12600;53.326;-6.298;2022-09-20T02:50:22;102158.63;;;17.95;59.71
24422;BME280;12600;53.326;-6.298;2022-09-20T02:53:06;102155.06;;;17.94;59.67
24422;BME280;12600;53.326;-6.298;2022-09-20T02:55:46;102146.59;;;17.91;59.83
24422;BME280;12600;53.326;-6.298;2022-09-20T02:58:32;102144.63;;;17.82;60.08
24422;BME280;12600;53.326;-6.298;2022-09-20T03:01:12;102134.84;;;17.76;59.93
24422;BME280;12600;53.326;-6.298;2022-09-20T03:04:01;102141.53;;;17.75;59.95
24422;BME280;12600;53.326;-6.298;2022-09-20T03:06:42;102139.03;;;17.65;60.25
24422;BME280;12600;53.326;-6.298;2022-09-20T03:09:22;102148.81;;;17.71;60.27
24422;BME280;12600;53.326;-6.298;2022-09-20T03:12:08;102126.13;;;17.52;60.92
24422;BME280;12600;53.326;-6.298;2022-09-20T03:14:45;102147.63;;;17.63;60.38
24422;BME280;12600;53.326;-6.298;2022-09-20T03:17:29;102146.50;;;17.65;60.42
24422;BME280;12600;53.326;-6.298;2022-09-20T03:20:22;102150.72;;;17.62;60.57
24422;BME280;12600;53.326;-6.298;2022-09-20T03:23:00;102140.78;;;17.61;60.50
24422;BME280;12600;53.326;-6.298;2022-09-20T03:25:50;102134.91;;;17.54;60.57
24422;BME280;12600;53.326;-6.298;2022-09-20T03:28:49;102141.91;;;17.51;60.97
24422;BME280;12600;53.326;-6.298;2022-09-20T03:31:35;102133.78;;;17.55;60.83
24422;BME280;12600;53.326;-6.298;2022-09-20T03:34:19;102132.31;;;17.49;60.83
24422;BME280;12600;53.326;-6.298;2022-09-20T03:37:28;102132.31;;;17.49;60.82
24422;BME280;12600;53.326;-6.298;2022-09-20T03:40:53;102140.28;;;17.50;61.10
24422;BME280;12600;53.326;-6.298;2022-09-20T03:43:40;102123.03;;;17.45;60.86
24422;BME280;12600;53.326;-6.298;2022-09-20T03:46:23;102129.56;;;17.49;60.76
24422;BME280;12600;53.326;-6.298;2022-09-20T03:49:30;102110.63;;;17.33;60.72
24422;BME280;12600;53.326;-6.298;2022-09-20T03:52:12;102110.81;;;17.37;60.95
24422;BME280;12600;53.326;-6.298;2022-09-20T03:58:33;102122.66;;;17.38;61.19
24422;BME280;12600;53.326;-6.298;2022-09-20T04:01:29;102114.34;;;17.29;61.01
24422;BME280;12600;53.326;-6.298;2022-09-20T04:04:11;102106.19;;;17.24;60.99
24422;BME280;12600;53.326;-6.298;2022-09-20T04:07:00;102112.88;;;17.31;61.22
24422;BME280;12600;53.326;-6.298;2022-09-20T04:10:31;102119.88;;;17.29;61.37
24422;BME280;12600;53.326;-6.298;2022-09-20T04:13:19;102106.69;;;17.17;61.44
24422;BME280;12600;53.326;-6.298;2022-09-20T04:16:14;102098.03;;;17.10;61.44
24422;BME280;12600;53.326;-6.298;2022-09-20T04:18:53;102117.72;;;17.17;61.17
24422;BME280;12600;53.326;-6.298;2022-09-20T04:21:32;102089.50;;;16.98;61.37
24422;BME280;12600;53.326;-6.298;2022-09-20T04:24:10;102111.84;;;17.10;61.53
24422;BME280;12600;53.326;-6.298;2022-09-20T04:26:48;102093.25;;;16.93;61.63
24422;BME280;12600;53.326;-6.298;2022-09-20T04:29:30;102111.78;;;17.01;61.69
24422;BME280;12600;53.326;-6.298;2022-09-20T04:32:12;102103.97;;;16.95;62.04
24422;BME280;12600;53.326;-6.298;2022-09-20T04:34:47;102103.47;;;16.93;61.98
24422;BME280;12600;53.326;-6.298;2022-09-20T04:37:38;102107.97;;;16.89;62.08
24422;BME280;12600;53.326;-6.298;2022-09-20T04:40:28;102110.56;;;16.85;62.79
24422;BME280;12600;53.326;-6.298;2022-09-20T04:43:50;102111.19;;;16.82;62.81
24422;BME280;12600;53.326;-6.298;2022-09-20T04:47:15;102104.84;;;16.82;62.77
24422;BME280;12600;53.326;-6.298;2022-09-20T04:50:49;102105.50;;;16.78;62.45
24422;BME280;12600;53.326;-6.298;2022-09-20T04:57:09;102098.56;;;16.67;62.55
24422;BME280;12600;53.326;-6.298;2022-09-20T05:00:02;102114.13;;;16.63;62.55
24422;BME280;12600;53.326;-6.298;2022-09-20T05:03:18;102110.66;;;16.58;62.67
24422;BME280;12600;53.326;-6.298;2022-09-20T05:10:03;102115.16;;;16.45;63.46
24422;BME280;12600;53.326;-6.298;2022-09-20T05:13:04;102102.22;;;16.32;63.24
24422;BME280;12600;53.326;-6.298;2022-09-20T05:15:43;102117.00;;;16.36;63.44
24422;BME280;12600;53.326;-6.298;2022-09-20T05:21:51;102109.91;;;16.21;64.65
24422;BME280;12600;53.326;-6.298;2022-09-20T05:24:43;102105.75;;;16.10;63.77
24422;BME280;12600;53.326;-6.298;2022-09-20T05:27:34;102109.47;;;16.05;64.00
24422;BME280;12600;53.326;-6.298;2022-09-20T05:30:19;102118.53;;;16.06;64.26
24422;BME280;12600;53.326;-6.298;2022-09-20T05:33:03;102120.91;;;15.99;64.39
24422;BME280;12600;53.326;-6.298;2022-09-20T05:35:42;102122.63;;;15.94;64.23
24422;BME280;12600;53.326;-6.298;2022-09-20T05:38:27;102096.94;;;15.72;63.86
24422;BME280;12600;53.326;-6.298;2022-09-20T05:41:11;102117.66;;;15.83;64.53
24422;BME280;12600;53.326;-6.298;2022-09-20T05:43:53;102113.19;;;15.73;64.26
24422;BME280;12600;53.326;-6.298;2022-09-20T05:46:35;102122.78;;;15.76;64.19
24422;BME280;12600;53.326;-6.298;2022-09-20T05:49:19;102118.50;;;15.70;64.17
24422;BME280;12600;53.326;-6.298;2022-09-20T05:52:01;102116.38;;;15.66;64.54
24422;BME280;12600;53.326;-6.298;2022-09-20T05:57:47;102119.81;;;15.58;63.83
24422;BME280;12600;53.326;-6.298;2022-09-20T06:00:23;102128.50;;;15.65;64.41
24422;BME280;12600;53.326;-6.298;2022-09-20T06:03:04;102125.81;;;15.60;63.54
24422;BME280;12600;53.326;-6.298;2022-09-20T06:05:54;102113.81;;;15.56;64.15
24422;BME280;12600;53.326;-6.298;2022-09-20T06:08:47;102127.84;;;15.55;64.17
24422;BME280;12600;53.326;-6.298;2022-09-20T06:11:53;102125.22;;;15.50;64.91
24422;BME280;12600;53.326;-6.298;2022-09-20T06:14:39;102119.09;;;15.39;65.21
24422;BME280;12600;53.326;-6.298;2022-09-20T06:17:23;102136.53;;;15.34;65.32
24422;BME280;12600;53.326;-6.298;2022-09-20T06:20:17;102130.94;;;15.26;65.77
24422;BME280;12600;53.326;-6.298;2022-09-20T06:22:55;102114.38;;;15.12;66.29
24422;BME280;12600;53.326;-6.298;2022-09-20T06:25:29;102123.97;;;15.15;66.46
24422;BME280;12600;53.326;-6.298;2022-09-20T06:28:06;102124.19;;;15.18;66.23
24422;BME280;12600;53.326;-6.298;2022-09-20T06:30:42;102128.06;;;15.17;66.92
24422;BME280;12600;53.326;-6.298;2022-09-20T06:33:16;102111.31;;;15.14;66.61
24422;BME280;12600;53.326;-6.298;2022-09-20T06:35:53;102112.66;;;15.16;66.69
24422;BME280;12600;53.326;-6.298;2022-09-20T06:38:41;102125.94;;;15.28;67.11
24422;BME280;12600;53.326;-6.298;2022-09-20T06:41:32;102128.28;;;15.34;67.03
24422;BME280;12600;53.326;-6.298;2022-09-20T06:44:04;102121.03;;;15.38;66.70
24422;BME280;12600;53.326;-6.298;2022-09-20T06:46:34;102121.75;;;15.44;66.69
24422;BME280;12600;53.326;-6.298;2022-09-20T06:49:04;102130.72;;;15.50;67.04
24422;BME280;12600;53.326;-6.298;2022-09-20T06:51:37;102126.53;;;15.52;66.71
24422;BME280;12600;53.326;-6.298;2022-09-20T06:54:16;102122.88;;;15.57;66.50
24422;BME280;12600;53.326;-6.298;2022-09-20T06:56:47;102134.53;;;15.68;66.50
24422;BME280;12600;53.326;-6.298;2022-09-20T06:59:18;102135.66;;;15.80;66.84
24422;BME280;12600;53.326;-6.298;2022-09-20T07:01:47;102143.53;;;16.09;66.74
24422;BME280;12600;53.326;-6.298;2022-09-20T07:04:16;102140.41;;;16.38;66.27
24422;BME280;12600;53.326;-6.298;2022-09-20T07:06:47;102141.59;;;16.68;65.80
24422;BME280;12600;53.326;-6.298;2022-09-20T07:09:18;102151.38;;;16.97;65.18
24422;BME280;12600;53.326;-6.298;2022-09-20T07:11:48;102133.78;;;17.15;64.85
24422;BME280;12600;53.326;-6.298;2022-09-20T07:14:18;102145.13;;;17.45;63.26
24422;BME280;12600;53.326;-6.298;2022-09-20T07:16:48;102149.75;;;17.67;63.08
24422;BME280;12600;53.326;-6.298;2022-09-20T07:19:17;102144.78;;;17.86;62.81
24422;BME280;12600;53.326;-6.298;2022-09-20T07:21:46;102142.34;;;17.84;61.29
24422;BME280;12600;53.326;-6.298;2022-09-20T07:24:17;102146.13;;;17.97;61.21
24422;BME280;12600;53.326;-6.298;2022-09-20T07:26:58;102148.38;;;18.04;60.55
24422;BME280;12600;53.326;-6.298;2022-09-20T07:29:28;102149.72;;;18.24;60.49
24422;BME280;12600;53.326;-6.298;2022-09-20T07:31:58;102131.66;;;18.43;59.86
24422;BME280;12600;53.326;-6.298;2022-09-20T07:34:27;102148.28;;;18.78;58.86
24422;BME280;12600;53.326;-6.298;2022-09-20T07:36:56;102138.41;;;19.07;58.18
24422;BME280;12600;53.326;-6.298;2022-09-20T07:39:28;102154.72;;;19.46;57.83
24422;BME280;12600;53.326;-6.298;2022-09-20T07:41:57;102144.25;;;19.61;56.72
24422;BME280;12600;53.326;-6.298;2022-09-20T07:44:28;102155.13;;;19.74;56.11
24422;BME280;12600;53.326;-6.298;2022-09-20T07:46:58;102154.66;;;19.64;53.90
24422;BME280;12600;53.326;-6.298;2022-09-20T07:49:28;102157.84;;;19.45;52.83
24422;BME280;12600;53.326;-6.298;2022-09-20T07:51:58;102134.25;;;19.30;54.36
24422;BME280;12600;53.326;-6.298;2022-09-20T07:54:29;102156.63;;;19.25;53.75
24422;BME280;12600;53.326;-6.298;2022-09-20T07:56:58;102156.31;;;19.18;53.95
24422;BME280;12600;53.326;-6.298;2022-09-20T07:59:27;102147.06;;;19.05;54.03
24422;BME280;12600;53.326;-6.298;2022-09-20T08:01:56;102151.13;;;18.99;53.94
24422;BME280;12600;53.326;-6.298;2022-09-20T08:04:27;102149.03;;;18.96;53.67
24422;BME280;12600;53.326;-6.298;2022-09-20T08:06:56;102148.22;;;18.95;53.61
24422;BME280;12600;53.326;-6.298;2022-09-20T08:09:29;102151.78;;;19.05;53.61
24422;BME280;12600;53.326;-6.298;2022-09-20T08:11:58;102164.00;;;19.12;53.74
24422;BME280;12600;53.326;-6.298;2022-09-20T08:14:48;102155.50;;;19.17;53.80
24422;BME280;12600;53.326;-6.298;2022-09-20T08:17:17;102161.63;;;19.32;53.71
24422;BME280;12600;53.326;-6.298;2022-09-20T08:19:47;102159.63;;;19.41;53.72
24422;BME280;12600;53.326;-6.298;2022-09-20T08:22:17;102165.97;;;19.50;53.71
24422;BME280;12600;53.326;-6.298;2022-09-20T08:24:48;102163.66;;;19.61;53.68
24422;BME280;12600;53.326;-6.298;2022-09-20T08:27:18;102164.25;;;19.75;53.88
24422;BME280;12600;53.326;-6.298;2022-09-20T08:29:47;102172.66;;;19.87;53.66
24422;BME280;12600;53.326;-6.298;2022-09-20T08:32:24;102087.38;;;19.46;53.29
24422;BME280;12600;53.326;-6.298;2022-09-20T08:34:53;102163.09;;;20.05;53.07
24422;BME280;12600;53.326;-6.298;2022-09-20T08:37:22;102160.31;;;20.05;51.33
24422;BME280;12600;53.326;-6.298;2022-09-20T08:39:53;102165.41;;;20.24;50.16
24422;BME280;12600;53.326;-6.298;2022-09-20T08:42:27;102164.44;;;20.41;50.37
24422;BME280;12600;53.326;-6.298;2022-09-20T08:45:13;102175.09;;;20.39;49.08
24422;BME280;12600;53.326;-6.298;2022-09-20T08:48:06;102167.81;;;20.26;48.18
24422;BME280;12600;53.326;-6.298;2022-09-20T08:50:41;102169.91;;;20.29;48.90
24422;BME280;12600;53.326;-6.298;2022-09-20T08:53:12;102172.44;;;20.22;48.64
24422;BME280;12600;53.326;-6.298;2022-09-20T08:55:49;102167.09;;;20.17;48.56
24422;BME280;12600;53.326;-6.298;2022-09-20T08:58:18;102172.28;;;20.18;48.83
24422;BME280;12600;53.326;-6.298;2022-09-20T09:00:48;102171.63;;;20.21;49.12
24422;BME280;12600;53.326;-6.298;2022-09-20T09:03:17;102161.53;;;20.17;48.61
24422;BME280;12600;53.326;-6.298;2022-09-20T09:05:49;102162.28;;;20.26;48.77
24422;BME280;12600;53.326;-6.298;2022-09-20T09:08:21;102167.13;;;20.29;47.84
24422;BME280;12600;53.326;-6.298;2022-09-20T09:10:56;102180.13;;;20.37;47.60
24422;BME280;12600;53.326;-6.298;2022-09-20T09:13:31;102178.53;;;20.36;47.39
24422;BME280;12600;53.326;-6.298;2022-09-20T09:16:08;102180.03;;;20.33;47.60
24422;BME280;12600;53.326;-6.298;2022-09-20T09:18:41;102184.88;;;20.36;47.55
24422;BME280;12600;53.326;-6.298;2022-09-20T09:21:19;102186.53;;;20.37;47.89
24422;BME280;12600;53.326;-6.298;2022-09-20T09:23:56;102192.13;;;20.29;46.88
24422;BME280;12600;53.326;-6.298;2022-09-20T09:26:38;102182.50;;;20.26;46.58
24422;BME280;12600;53.326;-6.298;2022-09-20T09:29:15;102182.84;;;20.25;46.91
24422;BME280;12600;53.326;-6.298;2022-09-20T09:31:46;102173.91;;;20.19;46.86
24422;BME280;12600;53.326;-6.298;2022-09-20T09:34:25;102193.78;;;20.30;46.71
24422;BME280;12600;53.326;-6.298;2022-09-20T09:36:56;102193.78;;;20.30;47.12
24422;BME280;12600;53.326;-6.298;2022-09-20T09:39:28;102186.56;;;20.29;46.95
24422;BME280;12600;53.326;-6.298;2022-09-20T09:41:59;102196.78;;;20.37;47.28
24422;BME280;12600;53.326;-6.298;2022-09-20T09:44:46;102194.50;;;20.39;47.17
24422;BME280;12600;53.326;-6.298;2022-09-20T09:47:25;102196.59;;;20.42;46.55
24422;BME280;12600;53.326;-6.298;2022-09-20T09:49:56;102195.28;;;20.48;46.99
24422;BME280;12600;53.326;-6.298;2022-09-20T09:52:31;102176.78;;;20.52;47.00
24422;BME280;12600;53.326;-6.298;2022-09-20T09:55:03;102186.81;;;20.65;46.61
24422;BME280;12600;53.326;-6.298;2022-09-20T09:57:43;102191.47;;;20.74;46.62
24422;BME280;12600;53.326;-6.298;2022-09-20T10:00:22;102193.25;;;20.90;46.84
24422;BME280;12600;53.326;-6.298;2022-09-20T10:03:41;102183.22;;;20.98;46.28
24422;BME280;12600;53.326;-6.298;2022-09-20T10:06:22;102164.56;;;20.99;46.09
24422;BME280;12600;53.326;-6.298;2022-09-20T10:09:08;102186.41;;;21.21;46.13
24422;BME280;12600;53.326;-6.298;2022-09-20T10:11:54;102191.91;;;21.30;45.74
24422;BME280;12600;53.326;-6.298;2022-09-20T10:14:45;102187.19;;;21.42;45.26
24422;BME280;12600;53.326;-6.298;2022-09-20T10:17:32;102198.09;;;21.60;44.95
24422;BME280;12600;53.326;-6.298;2022-09-20T10:20:23;102175.94;;;21.51;44.63
24422;BME280;12600;53.326;-6.298;2022-09-20T10:23:10;102202.03;;;21.71;44.56
24422;BME280;12600;53.326;-6.298;2022-09-20T10:26:11;102198.44;;;21.70;44.33
24422;BME280;12600;53.326;-6.298;2022-09-20T10:28:57;102203.53;;;21.81;44.79
24422;BME280;12600;53.326;-6.298;2022-09-20T10:31:46;102210.03;;;21.85;44.43
24422;BME280;12600;53.326;-6.298;2022-09-20T10:34:46;102210.59;;;22.02;44.62
24422;BME280;12600;53.326;-6.298;2022-09-20T10:37:25;102198.69;;;22.14;44.21
24422;BME280;12600;53.326;-6.298;2022-09-20T10:40:04;102192.84;;;22.19;43.81
24422;BME280;12600;53.326;-6.298;2022-09-20T10:42:43;102205.53;;;22.45;44.02
24422;BME280;12600;53.326;-6.298;2022-09-20T10:45:39;102198.31;;;22.56;43.43
24422;BME280;12600;53.326;-6.298;2022-09-20T10:48:39;102194.41;;;22.85;43.29
24422;BME280;12600;53.326;-6.298;2022-09-20T10:51:15;102191.00;;;22.92;42.54
24422;BME280;12600;53.326;-6.298;2022-09-20T10:54:00;102188.56;;;23.18;42.44
24422;BME280;12600;53.326;-6.298;2022-09-20T10:56:37;102179.19;;;23.42;41.80
24422;BME280;12600;53.326;-6.298;2022-09-20T10:59:34;102183.50;;;23.87;40.86
24422;BME280;12600;53.326;-6.298;2022-09-20T11:02:31;102197.91;;;24.59;39.49
24422;BME280;12600;53.326;-6.298;2022-09-20T11:05:28;102182.34;;;25.00;38.14
24422;BME280;12600;53.326;-6.298;2022-09-20T11:08:09;102190.28;;;25.41;38.22
24422;BME280;12600;53.326;-6.298;2022-09-20T11:10:44;102184.34;;;25.69;37.48
24422;BME280;12600;53.326;-6.298;2022-09-20T11:13:24;102177.28;;;26.01;36.94
24422;BME280;12600;53.326;-6.298;2022-09-20T11:16:01;102180.44;;;26.30;35.75
24422;BME280;12600;53.326;-6.298;2022-09-20T11:18:37;102183.94;;;26.83;35.28
24422;BME280;12600;53.326;-6.298;2022-09-20T11:21:16;102188.72;;;27.16;35.34
24422;BME280;12600;53.326;-6.298;2022-09-20T11:23:53;102179.25;;;26.94;33.11
24422;BME280;12600;53.326;-6.298;2022-09-20T11:26:29;102183.06;;;26.42;33.59
24422;BME280;12600;53.326;-6.298;2022-09-20T11:29:06;102177.16;;;25.94;34.35
24422;BME280;12600;53.326;-6.298;2022-09-20T11:31:42;102172.03;;;25.50;35.14
24422;BME280;12600;53.326;-6.298;2022-09-20T11:34:19;102178.13;;;25.10;36.14
24422;BME280;12600;53.326;-6.298;2022-09-20T11:36:53;102187.38;;;24.72;37.14
24422;BME280;12600;53.326;-6.298;2022-09-20T11:39:32;102175.03;;;24.53;37.29
24422;BME280;12600;53.326;-6.298;2022-09-20T11:42:04;102169.66;;;24.45;37.96
24422;BME280;12600;53.326;-6.298;2022-09-20T11:44:39;102173.41;;;24.52;38.26
24422;BME280;12600;53.326;-6.298;2022-09-20T11:47:18;102178.13;;;24.48;38.16
24422;BME280;12600;53.326;-6.298;2022-09-20T11:53:50;102173.09;;;24.38;38.69
24422;BME280;12600;53.326;-6.298;2022-09-20T11:56:25;102170.31;;;24.38;38.85
24422;BME280;12600;53.326;-6.298;2022-09-20T11:58:57;102168.13;;;24.47;38.89
24422;BME280;12600;53.326;-6.298;2022-09-20T12:01:30;102172.53;;;24.48;38.92
24422;BME280;12600;53.326;-6.298;2022-09-20T12:04:05;102160.50;;;24.28;39.28
24422;BME280;12600;53.326;-6.298;2022-09-20T12:07:00;102161.31;;;24.29;39.25
24422;BME280;12600;53.326;-6.298;2022-09-20T12:09:38;102160.13;;;24.30;39.33
24422;BME280;12600;53.326;-6.298;2022-09-20T12:12:32;102163.50;;;24.20;38.77
24422;BME280;12600;53.326;-6.298;2022-09-20T12:15:21;102152.06;;;24.25;39.60
24422;BME280;12600;53.326;-6.298;2022-09-20T12:18:27;102157.88;;;24.36;39.09
24422;BME280;12600;53.326;-6.298;2022-09-20T12:21:09;102143.50;;;24.34;38.97
24422;BME280;12600;53.326;-6.298;2022-09-20T12:24:16;102148.72;;;24.19;39.31
24422;BME280;12600;53.326;-6.298;2022-09-20T12:26:53;102142.72;;;24.17;39.62
24422;BME280;12600;53.326;-6.298;2022-09-20T12:30:04;102147.75;;;24.47;39.01
24422;BME280;12600;53.326;-6.298;2022-09-20T12:32:47;102140.56;;;24.88;39.41
24422;BME280;12600;53.326;-6.298;2022-09-20T12:39:01;102152.28;;;25.17;38.44
24422;BME280;12600;53.326;-6.298;2022-09-20T12:41:51;102147.06;;;25.15;37.03
24422;BME280;12600;53.326;-6.298;2022-09-20T12:44:31;102144.09;;;25.27;36.50
24422;BME280;12600;53.326;-6.298;2022-09-20T12:47:06;102146.69;;;25.17;36.77
24422;BME280;12600;53.326;-6.298;2022-09-20T12:49:49;102141.44;;;24.92;36.42
24422;BME280;12600;53.326;-6.298;2022-09-20T12:52:54;102144.56;;;24.87;36.80
24422;BME280;12600;53.326;-6.298;2022-09-20T12:55:49;102144.34;;;24.76;37.17
24422;BME280;12600;53.326;-6.298;2022-09-20T12:58:27;102117.47;;;24.49;37.33
24422;BME280;12600;53.326;-6.298;2022-09-20T13:01:30;102123.06;;;24.49;37.46
24422;BME280;12600;53.326;-6.298;2022-09-20T13:04:50;102128.03;;;24.59;37.83
24422;BME280;12600;53.326;-6.298;2022-09-20T13:07:47;102109.50;;;24.51;37.73
24422;BME280;12600;53.326;-6.298;2022-09-20T13:10:38;102117.59;;;24.56;38.40
24422;BME280;12600;53.326;-6.298;2022-09-20T13:13:34;102125.53;;;24.54;38.84
24422;BME280;12600;53.326;-6.298;2022-09-20T13:16:18;102122.31;;;25.17;38.41
24422;BME280;12600;53.326;-6.298;2022-09-20T13:18:58;102133.13;;;25.91;37.25
24422;BME280;12600;53.326;-6.298;2022-09-20T13:21:29;102125.09;;;26.19;37.13
24422;BME280;12600;53.326;-6.298;2022-09-20T13:23:59;102128.28;;;26.48;36.19
24422;BME280;12600;53.326;-6.298;2022-09-20T13:26:42;102122.97;;;26.76;35.99
24422;BME280;12600;53.326;-6.298;2022-09-20T13:29:25;102125.03;;;26.80;35.71
24422;BME280;12600;53.326;-6.298;2022-09-20T13:32:15;102118.31;;;26.54;35.96
24422;BME280;12600;53.326;-6.298;2022-09-20T13:34:45;102125.47;;;26.48;36.69
24422;BME280;12600;53.326;-6.298;2022-09-20T13:37:18;102111.28;;;26.37;36.90
24422;BME280;12600;53.326;-6.298;2022-09-20T13:39:52;102108.97;;;26.09;36.55
24422;BME280;12600;53.326;-6.298;2022-09-20T13:42:22;102124.66;;;25.87;37.18
24422;BME280;12600;53.326;-6.298;2022-09-20T13:44:54;102109.78;;;25.57;37.43
24422;BME280;12600;53.326;-6.298;2022-09-20T13:47:26;102113.59;;;25.19;38.06
24422;BME280;12600;53.326;-6.298;2022-09-20T13:50:00;102102.78;;;24.75;38.61
24422;BME280;12600;53.326;-6.298;2022-09-20T13:52:30;102109.44;;;24.47;39.20
24422;BME280;12600;53.326;-6.298;2022-09-20T13:55:27;102113.63;;;24.38;39.66
24422;BME280;12600;53.326;-6.298;2022-09-20T13:58:01;102092.28;;;23.91;40.30
24422;BME280;12600;53.326;-6.298;2022-09-20T14:00:33;102080.84;;;23.61;40.51
24422;BME280;12600;53.326;-6.298;2022-09-20T14:03:04;102106.75;;;23.61;40.95
24422;BME280;12600;53.326;-6.298;2022-09-20T14:05:33;102106.94;;;23.53;41.69
24422;BME280;12600;53.326;-6.298;2022-09-20T14:08:04;102114.69;;;23.43;41.87
24422;BME280;12600;53.326;-6.298;2022-09-20T14:10:36;102106.75;;;23.45;42.02
24422;BME280;12600;53.326;-6.298;2022-09-20T14:13:14;102107.94;;;23.44;41.98
24422;BME280;12600;53.326;-6.298;2022-09-20T14:15:46;102101.81;;;23.39;42.09
24422;BME280;12600;53.326;-6.298;2022-09-20T14:18:17;102110.97;;;23.39;41.76
24422;BME280;12600;53.326;-6.298;2022-09-20T14:20:48;102107.38;;;23.55;41.87
24422;BME280;12600;53.326;-6.298;2022-09-20T14:23:23;102111.16;;;23.62;41.52